sensor_id;sensor_type;location;lat;lon;timestamp;pressure;altitude;pressure_sealevel;temperature;humidity
3206;BME280;1615;53.602;11.418;2022-10-03T00:04:30;101476.88;;;12.92;100.00
3206;BME280;1615;53.602;11.418;2022-10-03T00:10:20;101490.56;;;13.02;100.00
3206;BME280;1615;53.602;11.418;2022-10-03T00:15:23;101496.94;;;12.92;100.00
3206;BME280;1615;53.602;11.418;2022-10-03T00:21:13;101511.53;;;12.98;100.00
3206;BME280;1615;53.602;11.418;2022-10-03T00:24:07;101506.03;;;12.98;100.00
3206;BME280;1615;53.602;11.418;2022-10-03T00:29:41;101518.69;;;12.94;100.00
3206;BME280;1615;53.602;11.418;2022-10-03T00:40:31;101515.28;;;13.07;100.00
3206;BME280;1615;53.602;11.418;2022-10-03T00:57:56;101535.25;;;12.89;100.00
3206;BME280;1615;53.602;11.418;2022-10-03T01:00:30;101550.59;;;12.95;100.00
3206;BME280;1615;53.602;11.418;2022-10-03T01:05:48;101545.53;;;13.12;100.00
3206;BME280;1615;53.602;11.418;2022-10-03T01:18:54;101532.94;;;13.01;100.00
3206;BME280;1615;53.602;11.418;2022-10-03T01:21:44;101539.59;;;12.95;100.00
3206;BME280;1615;53.602;11.418;2022-10-03T01:24:49;101548.91;;;13.04;100.00
3206;BME280;1615;53.602;11.418;2022-10-03T01:27:50;101542.31;;;13.00;100.00
3206;BME280;1615;53.602;11.418;2022-10-03T01:30:41;101452.56;;;12.47;100.00
3206;BME280;1615;53.602;11.418;2022-10-03T01:33:12;101545.91;;;12.95;100.00
3206;BME280;1615;53.602;11.418;2022-10-03T01:35:52;101547.38;;;12.88;100.00
3206;BME280;1615;53.602;11.418;2022-10-03T01:38:24;101553.50;;;12.80;100.00
3206;BME280;1615;53.602;11.418;2022-10-03T01:40:57;101561.38;;;12.91;100.00
3206;BME280;1615;53.602;11.418;2022-10-03T01:43:50;101558.94;;;12.85;100.00
3206;BME280;1615;53.602;11.418;2022-10-03T01:46:37;101555.81;;;13.01;100.00
3206;BME280;1615;53.602;11.418;2022-10-03T01:52:03;101546.78;;;12.96;100.00
3206;BME280;1615;53.602;11.418;2022-10-03T01:54:44;101568.41;;;12.74;100.00
3206;BME280;1615;53.602;11.418;2022-10-03T01:57:31;101567.75;;;12.87;100.00
3206;BME280;1615;53.602;11.418;2022-10-03T02:00:19;101455.53;;;12.22;100.00
3206;BME280;1615;53.602;11.418;2022-10-03T02:02:54;101564.09;;;12.96;100.00
3206;BME280;1615;53.602;11.418;2022-10-03T02:05:35;101574.84;;;12.98;100.00
3206;BME280;1615;53.602;11.418;2022-10-03T02:08:14;101568.81;;;12.96;100.00
3206;BME280;1615;53.602;11.418;2022-10-03T02:10:59;101571.81;;;12.94;100.00
3206;BME280;1615;53.602;11.418;2022-10-03T02:16:32;101580.34;;;12.93;100.00
3206;BME280;1615;53.602;11.418;2022-10-03T02:21:31;101446.22;;;12.18;100.00
3206;BME280;1615;53.602;11.418;2022-10-03T02:24:06;101590.03;;;13.19;100.00
3206;BME280;1615;53.602;11.418;2022-10-03T02:35:49;101618.84;;;13.31;100.00
3206;BME280;1615;53.602;11.418;2022-10-03T02:38:28;101611.38;;;13.32;100.00
3206;BME280;1615;53.602;11.418;2022-10-03T02:58:25;101605.06;;;13.31;100.00
3206;BME280;1615;53.602;11.418;2022-10-03T03:04:34;101199.72;;;10.94;100.00
3206;BME280;1615;53.602;11.418;2022-10-03T03:10:32;101618.47;;;13.38;100.00
3206;BME280;1615;53.602;11.418;2022-10-03T03:16:29;101620.84;;;13.21;100.00
3206;BME280;1615;53.602;11.418;2022-10-03T03:19:17;101626.13;;;13.17;100.00
3206;BME280;1615;53.602;11.418;2022-10-03T03:22:14;101627.53;;;13.15;100.00
3206;BME280;1615;53.602;11.418;2022-10-03T03:24:54;101541.84;;;12.59;100.00
3206;BME280;1615;53.602;11.418;2022-10-03T03:27:49;101645.19;;;13.09;100.00
3206;BME280;1615;53.602;11.418;2022-10-03T03:30:25;101620.22;;;13.00;100.00
3206;BME280;1615;53.602;11.418;2022-10-03T03:33:04;101633.91;;;13.10;100.00
3206;BME280;1615;53.602;11.418;2022-10-03T03:35:46;101645.19;;;13.09;100.00
3206;BME280;1615;53.602;11.418;2022-10-03T03:38:34;101654.59;;;13.08;100.00
3206;BME280;1615;53.602;11.418;2022-10-03T03:41:40;101654.06;;;13.01;100.00
3206;BME280;1615;53.602;11.418;2022-10-03T03:55:42;101667.66;;;12.82;100.00
3206;BME280;1615;53.602;11.418;2022-10-03T03:58:29;101663.59;;;12.80;100.00
3206;BME280;1615;53.602;11.418;2022-10-03T04:01:15;101659.66;;;12.91;100.00
3206;BME280;1615;53.602;11.418;2022-10-03T04:12:25;101671.84;;;12.80;100.00
3206;BME280;1615;53.602;11.418;2022-10-03T04:15:10;101673.69;;;12.89;100.00
3206;BME280;1615;53.602;11.418;2022-10-03T04:18:10;101675.28;;;12.95;100.00
3206;BME280;1615;53.602;11.418;2022-10-03T04:21:09;101670.91;;;12.94;100.00
3206;BME280;1615;53.602;11.418;2022-10-03T04:31:59;101657.50;;;12.83;100.00
3206;BME280;1615;53.602;11.418;2022-10-03T04:35:32;101664.09;;;12.82;100.00
3206;BME280;1615;53.602;11.418;2022-10-03T04:51:15;101679.06;;;12.66;100.00
3206;BME280;1615;53.602;11.418;2022-10-03T04:54:10;101687.59;;;12.64;100.00
3206;BME280;1615;53.602;11.418;2022-10-03T04:56:47;101683.78;;;12.60;100.00
3206;BME280;1615;53.602;11.418;2022-10-03T04:59:44;101689.28;;;12.60;100.00
3206;BME280;1615;53.602;11.418;2022-10-03T05:05:51;101688.78;;;12.53;100.00
3206;BME280;1615;53.602;11.418;2022-10-03T05:08:40;101698.13;;;12.52;100.00
3206;BME280;1615;53.602;11.418;2022-10-03T05:11:19;101703.38;;;12.54;100.00
3206;BME280;1615;53.602;11.418;2022-10-03T05:16:47;101705.56;;;12.52;100.00
3206;BME280;1615;53.602;11.418;2022-10-03T05:22:38;101708.84;;;12.59;100.00
3206;BME280;1615;53.602;11.418;2022-10-03T05:25:34;101717.38;;;12.52;100.00
3206;BME280;1615;53.602;11.418;2022-10-03T05:28:16;101709.38;;;12.56;100.00
3206;BME280;1615;53.602;11.418;2022-10-03T05:30:54;101724.28;;;12.50;100.00
3206;BME280;1615;53.602;11.418;2022-10-03T05:33:37;101714.91;;;12.51;100.00
3206;BME280;1615;53.602;11.418;2022-10-03T05:41:50;101752.78;;;12.69;100.00
3206;BME280;1615;53.602;11.418;2022-10-03T05:44:23;101743.44;;;12.70;100.00
3206;BME280;1615;53.602;11.418;2022-10-03T05:46:58;101742.25;;;12.86;100.00
3206;BME280;1615;53.602;11.418;2022-10-03T05:52:38;101692.34;;;12.59;100.00
3206;BME280;1615;53.602;11.418;2022-10-03T05:58:27;101744.41;;;12.89;100.00
3206;BME280;1615;53.602;11.418;2022-10-03T06:07:39;101742.28;;;12.81;100.00
3206;BME280;1615;53.602;11.418;2022-10-03T06:13:20;101759.38;;;12.73;100.00
3206;BME280;1615;53.602;11.418;2022-10-03T06:15:58;101766.50;;;12.74;100.00
3206;BME280;1615;53.602;11.418;2022-10-03T06:21:19;101766.72;;;12.82;100.00
3206;BME280;1615;53.602;11.418;2022-10-03T06:34:33;101772.16;;;13.02;100.00
3206;BME280;1615;53.602;11.418;2022-10-03T06:37:23;101775.97;;;13.11;100.00
3206;BME280;1615;53.602;11.418;2022-10-03T06:48:56;101778.03;;;13.63;100.00
3206;BME280;1615;53.602;11.418;2022-10-03T06:51:44;101782.63;;;13.72;100.00
3206;BME280;1615;53.602;11.418;2022-10-03T06:54:45;101774.09;;;13.74;100.00
3206;BME280;1615;53.602;11.418;2022-10-03T06:57:52;101782.22;;;13.89;100.00
3206;BME280;1615;53.602;11.418;2022-10-03T07:00:38;101750.31;;;13.83;100.00
3206;BME280;1615;53.602;11.418;2022-10-03T07:03:34;101775.44;;;14.05;100.00
3206;BME280;1615;53.602;11.418;2022-10-03T07:06:27;101779.78;;;14.11;100.00
3206;BME280;1615;53.602;11.418;2022-10-03T07:12:15;101781.91;;;14.19;100.00
3206;BME280;1615;53.602;11.418;2022-10-03T07:17:37;101785.34;;;14.34;100.00
3206;BME280;1615;53.602;11.418;2022-10-03T07:28:45;101772.31;;;14.40;100.00
3206;BME280;1615;53.602;11.418;2022-10-03T07:31:32;101803.97;;;14.66;100.00
3206;BME280;1615;53.602;11.418;2022-10-03T07:45:43;101801.22;;;15.08;100.00
3206;BME280;1615;53.602;11.418;2022-10-03T07:51:20;101788.88;;;15.19;100.00
3206;BME280;1615;53.602;11.418;2022-10-03T07:54:20;101777.03;;;15.00;100.00
3206;BME280;1615;53.602;11.418;2022-10-03T07:57:24;101802.19;;;15.17;100.00
3206;BME280;1615;53.602;11.418;2022-10-03T08:00:06;101803.69;;;15.28;100.00
3206;BME280;1615;53.602;11.418;2022-10-03T08:08:32;101811.81;;;15.75;100.00
3206;BME280;1615;53.602;11.418;2022-10-03T08:11:19;101816.97;;;15.81;100.00
3206;BME280;1615;53.602;11.418;2022-10-03T08:16:53;101819.94;;;15.85;100.00
3206;BME280;1615;53.602;11.418;2022-10-03T08:20:14;101812.16;;;15.87;100.00
3206;BME280;1615;53.602;11.418;2022-10-03T08:22:35;101812.47;;;15.99;100.00
3206;BME280;1615;53.602;11.418;2022-10-03T08:25:16;101813.00;;;16.01;100.00
3206;BME280;1615;53.602;11.418;2022-10-03T08:28:17;101818.22;;;16.02;100.00
3206;BME280;1615;53.602;11.418;2022-10-03T08:31:40;101816.00;;;16.04;100.00
3206;BME280;1615;53.602;11.418;2022-10-03T08:34:25;101823.38;;;16.09;100.00
3206;BME280;1615;53.602;11.418;2022-10-03T08:39:45;101829.25;;;15.89;100.00
3206;BME280;1615;53.602;11.418;2022-10-03T08:56:16;101820.13;;;16.34;100.00
3206;BME280;1615;53.602;11.418;2022-10-03T08:59:27;101827.75;;;16.42;100.00
3206;BME280;1615;53.602;11.418;2022-10-03T09:02:34;101818.34;;;16.43;100.00
3206;BME280;1615;53.602;11.418;2022-10-03T09:05:29;101796.09;;;16.48;100.00
3206;BME280;1615;53.602;11.418;2022-10-03T09:19:57;101814.50;;;17.06;100.00
3206;BME280;1615;53.602;11.418;2022-10-03T09:28:32;101826.94;;;16.95;100.00
3206;BME280;1615;53.602;11.418;2022-10-03T09:36:53;101819.88;;;17.38;100.00
3206;BME280;1615;53.602;11.418;2022-10-03T09:39:51;101825.13;;;17.40;100.00
3206;BME280;1615;53.602;11.418;2022-10-03T09:51:28;101819.13;;;17.46;100.00
3206;BME280;1615;53.602;11.418;2022-10-03T09:54:21;101822.28;;;17.53;100.00
3206;BME280;1615;53.602;11.418;2022-10-03T09:57:02;101822.28;;;17.53;100.00
3206;BME280;1615;53.602;11.418;2022-10-03T10:05:33;101823.03;;;17.67;100.00
3206;BME280;1615;53.602;11.418;2022-10-03T10:08:30;101827.13;;;17.70;100.00
3206;BME280;1615;53.602;11.418;2022-10-03T10:16:28;101827.41;;;17.60;100.00
3206;BME280;1615;53.602;11.418;2022-10-03T10:24:41;101838.00;;;17.09;100.00
3206;BME280;1615;53.602;11.418;2022-10-03T10:43:47;101826.53;;;17.73;100.00
3206;BME280;1615;53.602;11.418;2022-10-03T11:12:17;101834.78;;;17.86;100.00
3206;BME280;1615;53.602;11.418;2022-10-03T11:21:03;101830.31;;;18.29;100.00
3206;BME280;1615;53.602;11.418;2022-10-03T11:35:28;101825.72;;;18.25;100.00
3206;BME280;1615;53.602;11.418;2022-10-03T11:38:15;101828.88;;;18.32;100.00
3206;BME280;1615;53.602;11.418;2022-10-03T11:48:53;101826.38;;;18.61;100.00
3206;BME280;1615;53.602;11.418;2022-10-03T11:51:39;101795.50;;;18.54;100.00
3206;BME280;1615;53.602;11.418;2022-10-03T11:54:18;101820.25;;;18.81;100.00
3206;BME280;1615;53.602;11.418;2022-10-03T11:56:49;101818.63;;;18.80;100.00
3206;BME280;1615;53.602;11.418;2022-10-03T11:59:27;101816.00;;;18.83;100.00
3206;BME280;1615;53.602;11.418;2022-10-03T12:02:29;101778.19;;;18.57;100.00
3206;BME280;1615;53.602;11.418;2022-10-03T12:11:12;101821.72;;;18.87;100.00
3206;BME280;1615;53.602;11.418;2022-10-03T12:16:55;101817.19;;;18.91;100.00
3206;BME280;1615;53.602;11.418;2022-10-03T12:19:29;101818.50;;;18.93;100.00
3206;BME280;1615;53.602;11.418;2022-10-03T12:24:53;101815.69;;;18.85;100.00
3206;BME280;1615;53.602;11.418;2022-10-03T12:27:37;101809.66;;;18.83;100.00
3206;BME280;1615;53.602;11.418;2022-10-03T12:30:15;101802.78;;;18.80;100.00
3206;BME280;1615;53.602;11.418;2022-10-03T12:33:02;101808.34;;;18.80;100.00
3206;BME280;1615;53.602;11.418;2022-10-03T12:35:47;101800.59;;;18.69;100.00
3206;BME280;1615;53.602;11.418;2022-10-03T12:38:37;101795.34;;;18.59;100.00
3206;BME280;1615;53.602;11.418;2022-10-03T12:41:43;101799.59;;;18.56;100.00
3206;BME280;1615;53.602;11.418;2022-10-03T12:44:46;101798.97;;;18.68;100.00
3206;BME280;1615;53.602;11.418;2022-10-03T12:47:51;101801.59;;;18.73;100.00
3206;BME280;1615;53.602;11.418;2022-10-03T12:58:54;101802.66;;;18.94;100.00
3206;BME280;1615;53.602;11.418;2022-10-03T13:01:37;101802.28;;;18.87;100.00
3206;BME280;1615;53.602;11.418;2022-10-03T13:10:17;101796.63;;;18.53;100.00
3206;BME280;1615;53.602;11.418;2022-10-03T13:21:10;101805.88;;;18.79;100.00
3206;BME280;1615;53.602;11.418;2022-10-03T13:23:44;101717.94;;;18.27;100.00
3206;BME280;1615;53.602;11.418;2022-10-03T13:26:22;101812.09;;;18.93;100.00
3206;BME280;1615;53.602;11.418;2022-10-03T13:29:20;101814.09;;;19.01;100.00
3206;BME280;1615;53.602;11.418;2022-10-03T13:34:24;101804.13;;;19.00;100.00
3206;BME280;1615;53.602;11.418;2022-10-03T13:37:23;101789.22;;;18.87;100.00
3206;BME280;1615;53.602;11.418;2022-10-03T13:39:53;101799.66;;;18.82;100.00
3206;BME280;1615;53.602;11.418;2022-10-03T13:42:36;101467.91;;;16.42;100.00
3206;BME280;1615;53.602;11.418;2022-10-03T13:45:16;101797.69;;;18.74;100.00
3206;BME280;1615;53.602;11.418;2022-10-03T13:47:52;101790.97;;;18.66;100.00
3206;BME280;1615;53.602;11.418;2022-10-03T13:50:33;101792.22;;;18.52;100.00
3206;BME280;1615;53.602;11.418;2022-10-03T13:53:06;101695.56;;;17.84;100.00
3206;BME280;1615;53.602;11.418;2022-10-03T13:55:49;101797.56;;;18.40;100.00
3206;BME280;1615;53.602;11.418;2022-10-03T14:04:21;101804.06;;;18.05;100.00
3206;BME280;1615;53.602;11.418;2022-10-03T14:09:59;101793.69;;;18.19;100.00
3206;BME280;1615;53.602;11.418;2022-10-03T14:21:10;101787.53;;;18.00;100.00
3206;BME280;1615;53.602;11.418;2022-10-03T14:23:50;101784.25;;;17.98;100.00
3206;BME280;1615;53.602;11.418;2022-10-03T14:26:34;101796.47;;;17.97;100.00
3206;BME280;1615;53.602;11.418;2022-10-03T14:32:03;101813.53;;;17.82;100.00
3206;BME280;1615;53.602;11.418;2022-10-03T14:42:29;101803.97;;;17.66;100.00
3206;BME280;1615;53.602;11.418;2022-10-03T14:44:59;101812.09;;;17.84;100.00
3206;BME280;1615;53.602;11.418;2022-10-03T14:47:36;101808.63;;;17.79;100.00
3206;BME280;1615;53.602;11.418;2022-10-03T14:50:03;101814.41;;;17.69;100.00
3206;BME280;1615;53.602;11.418;2022-10-03T14:52:34;101818.69;;;17.53;100.00
3206;BME280;1615;53.602;11.418;2022-10-03T14:55:21;101820.44;;;17.49;100.00
3206;BME280;1615;53.602;11.418;2022-10-03T14:57:53;101809.34;;;17.49;100.00
3206;BME280;1615;53.602;11.418;2022-10-03T15:00:26;101808.97;;;17.42;100.00
3206;BME280;1615;53.602;11.418;2022-10-03T15:03:12;101803.19;;;17.52;100.00
3206;BME280;1615;53.602;11.418;2022-10-03T15:05:52;101801.69;;;17.46;100.00
3206;BME280;1615;53.602;11.418;2022-10-03T15:08:19;101762.16;;;17.27;100.00
3206;BME280;1615;53.602;11.418;2022-10-03T15:10:45;101792.72;;;17.49;100.00
3206;BME280;1615;53.602;11.418;2022-10-03T15:13:12;101784.34;;;17.40;100.00
3206;BME280;1615;53.602;11.418;2022-10-03T15:15:40;101795.00;;;17.33;100.00
3206;BME280;1615;53.602;11.418;2022-10-03T15:18:14;101795.44;;;17.27;100.00
3206;BME280;1615;53.602;11.418;2022-10-03T15:20:43;101792.53;;;17.32;100.00
3206;BME280;1615;53.602;11.418;2022-10-03T15:23:37;101789.88;;;17.27;100.00
3206;BME280;1615;53.602;11.418;2022-10-03T15:26:08;101779.00;;;17.30;100.00
3206;BME280;1615;53.602;11.418;2022-10-03T15:28:41;101794.16;;;17.46;100.00
3206;BME280;1615;53.602;11.418;2022-10-03T15:31:13;101787.38;;;17.52;100.00
3206;BME280;1615;53.602;11.418;2022-10-03T15:33:42;101788.19;;;17.53;100.00
3206;BME280;1615;53.602;11.418;2022-10-03T15:36:15;101664.47;;;16.77;100.00
3206;BME280;1615;53.602;11.418;2022-10-03T15:38:48;101777.53;;;17.33;100.00
3206;BME280;1615;53.602;11.418;2022-10-03T15:41:35;101788.63;;;17.33;100.00
3206;BME280;1615;53.602;11.418;2022-10-03T15:44:33;101778.56;;;17.37;100.00
3206;BME280;1615;53.602;11.418;2022-10-03T15:47:08;101777.69;;;17.28;100.00
3206;BME280;1615;53.602;11.418;2022-10-03T15:52:23;101779.56;;;17.19;100.00
3206;BME280;1615;53.602;11.418;2022-10-03T15:54:58;101756.53;;;16.96;100.00
3206;BME280;1615;53.602;11.418;2022-10-03T15:57:29;101778.03;;;17.13;100.00
3206;BME280;1615;53.602;11.418;2022-10-03T15:59:56;101661.53;;;16.33;100.00
3206;BME280;1615;53.602;11.418;2022-10-03T16:02:31;101781.13;;;17.11;100.00
3206;BME280;1615;53.602;11.418;2022-10-03T16:04:58;101787.69;;;17.15;100.00
3206;BME280;1615;53.602;11.418;2022-10-03T16:15:19;101792.94;;;17.03;100.00
3206;BME280;1615;53.602;11.418;2022-10-03T16:20:24;101795.13;;;16.93;100.00
3206;BME280;1615;53.602;11.418;2022-10-03T16:22:55;101800.47;;;16.89;100.00
3206;BME280;1615;53.602;11.418;2022-10-03T16:25:27;101794.19;;;16.84;100.00
3206;BME280;1615;53.602;11.418;2022-10-03T16:28:07;101665.47;;;15.92;100.00
3206;BME280;1615;53.602;11.418;2022-10-03T16:30:57;101801.91;;;16.73;100.00
3206;BME280;1615;53.602;11.418;2022-10-03T16:33:30;101739.38;;;16.32;100.00
3206;BME280;1615;53.602;11.418;2022-10-03T16:36:01;101801.09;;;16.59;100.00
3206;BME280;1615;53.602;11.418;2022-10-03T16:38:35;101803.66;;;16.56;100.00
3206;BME280;1615;53.602;11.418;2022-10-03T16:41:03;101795.97;;;16.53;100.00
3206;BME280;1615;53.602;11.418;2022-10-03T16:43:32;101795.47;;;16.51;100.00
3206;BME280;1615;53.602;11.418;2022-10-03T16:46:03;101798.88;;;16.48;100.00
3206;BME280;1615;53.602;11.418;2022-10-03T16:48:33;101739.75;;;16.12;100.00
3206;BME280;1615;53.602;11.418;2022-10-03T16:51:39;101796.25;;;16.24;100.00
3206;BME280;1615;53.602;11.418;2022-10-03T16:54:10;101788.53;;;16.21;100.00
3206;BME280;1615;53.602;11.418;2022-10-03T16:56:40;101788.66;;;16.30;100.00
3206;BME280;1615;53.602;11.418;2022-10-03T16:59:13;101864.59;;;16.24;100.00
3206;BME280;1615;53.602;11.418;2022-10-03T17:01:50;101783.00;;;16.21;100.00
3206;BME280;1615;53.602;11.418;2022-10-03T17:04:24;101857.00;;;16.16;100.00
3206;BME280;1615;53.602;11.418;2022-10-03T17:06:58;101792.34;;;16.12;100.00
3206;BME280;1615;53.602;11.418;2022-10-03T17:11:59;101784.22;;;16.02;100.00
3206;BME280;1615;53.602;11.418;2022-10-03T17:14:29;101709.03;;;15.54;100.00
3206;BME280;1615;53.602;11.418;2022-10-03T17:17:03;101798.13;;;15.97;100.00
3206;BME280;1615;53.602;11.418;2022-10-03T17:19:38;101799.75;;;15.84;100.00
3206;BME280;1615;53.602;11.418;2022-10-03T17:22:14;101808.66;;;15.81;100.00
3206;BME280;1615;53.602;11.418;2022-10-03T17:24:45;101808.41;;;15.78;100.00
3206;BME280;1615;53.602;11.418;2022-10-03T17:27:33;101815.16;;;15.72;100.00
3206;BME280;1615;53.602;11.418;2022-10-03T17:30:12;101813.81;;;15.69;100.00
3206;BME280;1615;53.602;11.418;2022-10-03T17:32:44;101811.47;;;15.63;100.00
3206;BME280;1615;53.602;11.418;2022-10-03T17:35:35;101812.56;;;15.62;100.00
3206;BME280;1615;53.602;11.418;2022-10-03T17:38:25;101816.75;;;15.59;100.00
3206;BME280;1615;53.602;11.418;2022-10-03T17:41:14;101817.44;;;15.51;100.00
3206;BME280;1615;53.602;11.418;2022-10-03T17:43:58;101827.00;;;15.59;100.00
3206;BME280;1615;53.602;11.418;2022-10-03T17:49:19;101815.88;;;15.64;100.00
3206;BME280;1615;53.602;11.418;2022-10-03T17:51:51;101721.34;;;14.93;100.00
3206;BME280;1615;53.602;11.418;2022-10-03T17:54:26;101823.81;;;15.52;100.00
3206;BME280;1615;53.602;11.418;2022-10-03T17:57:16;101827.88;;;15.54;100.00
3206;BME280;1615;53.602;11.418;2022-10-03T18:00:19;101800.72;;;15.43;100.00
3206;BME280;1615;53.602;11.418;2022-10-03T18:05:46;101823.25;;;15.50;100.00
3206;BME280;1615;53.602;11.418;2022-10-03T18:08:17;101840.22;;;15.43;100.00
3206;BME280;1615;53.602;11.418;2022-10-03T18:10:48;101832.31;;;15.37;100.00
3206;BME280;1615;53.602;11.418;2022-10-03T18:13:24;101840.41;;;15.33;100.00
3206;BME280;1615;53.602;11.418;2022-10-03T18:16:10;101839.28;;;15.34;100.00
3206;BME280;1615;53.602;11.418;2022-10-03T18:21:58;101837.97;;;15.27;100.00
3206;BME280;1615;53.602;11.418;2022-10-03T18:24:49;101834.22;;;15.18;100.00
3206;BME280;1615;53.602;11.418;2022-10-03T18:27:34;101800.25;;;14.99;100.00
3206;BME280;1615;53.602;11.418;2022-10-03T18:30:13;101837.97;;;15.27;100.00
3206;BME280;1615;53.602;11.418;2022-10-03T18:32:40;101833.03;;;15.24;100.00
3206;BME280;1615;53.602;11.418;2022-10-03T18:35:11;101837.19;;;15.21;100.00
3206;BME280;1615;53.602;11.418;2022-10-03T18:40:13;101844.22;;;15.14;100.00
3206;BME280;1615;53.602;11.418;2022-10-03T18:42:39;101845.41;;;15.08;100.00
3206;BME280;1615;53.602;11.418;2022-10-03T18:45:05;101845.53;;;14.98;100.00
3206;BME280;1615;53.602;11.418;2022-10-03T18:47:34;101840.50;;;15.05;100.00
3206;BME280;1615;53.602;11.418;2022-10-03T18:55:15;101824.50;;;15.02;100.00
3206;BME280;1615;53.602;11.418;2022-10-03T18:57:58;101830.03;;;15.02;100.00
3206;BME280;1615;53.602;11.418;2022-10-03T19:00:28;101840.63;;;14.95;100.00
3206;BME280;1615;53.602;11.418;2022-10-03T19:03:00;101835.44;;;14.88;100.00
3206;BME280;1615;53.602;11.418;2022-10-03T19:05:46;101837.16;;;14.84;100.00
3206;BME280;1615;53.602;11.418;2022-10-03T19:08:28;101847.34;;;14.89;100.00
3206;BME280;1615;53.602;11.418;2022-10-03T19:11:17;101843.91;;;14.97;100.00
3206;BME280;1615;53.602;11.418;2022-10-03T19:14:04;101839.78;;;14.94;100.00
3206;BME280;1615;53.602;11.418;2022-10-03T19:16:43;101841.81;;;14.89;100.00
3206;BME280;1615;53.602;11.418;2022-10-03T19:22:15;101716.34;;;14.11;100.00
3206;BME280;1615;53.602;11.418;2022-10-03T19:24:45;101844.41;;;14.80;100.00
3206;BME280;1615;53.602;11.418;2022-10-03T19:27:15;101854.63;;;14.80;100.00
3206;BME280;1615;53.602;11.418;2022-10-03T19:29:48;101847.47;;;14.79;100.00
3206;BME280;1615;53.602;11.418;2022-10-03T19:32:41;101827.84;;;14.57;100.00
3206;BME280;1615;53.602;11.418;2022-10-03T19:35:12;101849.31;;;14.60;100.00
3206;BME280;1615;53.602;11.418;2022-10-03T19:37:47;101844.34;;;14.62;100.00
3206;BME280;1615;53.602;11.418;2022-10-03T19:40:32;101846.03;;;14.58;100.00
3206;BME280;1615;53.602;11.418;2022-10-03T19:45:48;101827.06;;;14.28;100.00
3206;BME280;1615;53.602;11.418;2022-10-03T19:48:17;101840.28;;;14.31;100.00
3206;BME280;1615;53.602;11.418;2022-10-03T19:50:44;101847.56;;;14.45;100.00
3206;BME280;1615;53.602;11.418;2022-10-03T19:53:14;101870.94;;;14.53;100.00
3206;BME280;1615;53.602;11.418;2022-10-03T19:55:41;101844.19;;;14.53;100.00
3206;BME280;1615;53.602;11.418;2022-10-03T20:00:34;101850.28;;;14.50;100.00
3206;BME280;1615;53.602;11.418;2022-10-03T20:03:14;101748.00;;;13.90;100.00
3206;BME280;1615;53.602;11.418;2022-10-03T20:08:31;101843.34;;;14.53;100.00
3206;BME280;1615;53.602;11.418;2022-10-03T20:14:00;101846.03;;;14.58;100.00
3206;BME280;1615;53.602;11.418;2022-10-03T20:16:28;101848.81;;;14.58;100.00
3206;BME280;1615;53.602;11.418;2022-10-03T20:19:04;101840.00;;;14.56;100.00
3206;BME280;1615;53.602;11.418;2022-10-03T20:21:30;101837.81;;;14.53;100.00
3206;BME280;1615;53.602;11.418;2022-10-03T20:23:57;101840.06;;;14.51;100.00
3206;BME280;1615;53.602;11.418;2022-10-03T20:26:32;101846.22;;;14.43;100.00
3206;BME280;1615;53.602;11.418;2022-10-03T20:31:29;101850.09;;;14.42;100.00
3206;BME280;1615;53.602;11.418;2022-10-03T20:33:56;101850.97;;;14.37;100.00
3206;BME280;1615;53.602;11.418;2022-10-03T20:36:37;101842.75;;;14.32;100.00
3206;BME280;1615;53.602;11.418;2022-10-03T20:39:22;101845.78;;;14.31;100.00
3206;BME280;1615;53.602;11.418;2022-10-03T20:42:17;101853.63;;;14.19;100.00
3206;BME280;1615;53.602;11.418;2022-10-03T20:47:36;101853.63;;;14.19;100.00
3206;BME280;1615;53.602;11.418;2022-10-03T20:50:33;101852.31;;;14.11;100.00
3206;BME280;1615;53.602;11.418;2022-10-03T20:53:02;101852.06;;;14.08;100.00
3206;BME280;1615;53.602;11.418;2022-10-03T20:55:31;101857.50;;;14.13;100.00
3206;BME280;1615;53.602;11.418;2022-10-03T20:58:11;101841.38;;;14.01;100.00
3206;BME280;1615;53.602;11.418;2022-10-03T21:00:47;101736.97;;;13.33;100.00
3206;BME280;1615;53.602;11.418;2022-10-03T21:03:25;101857.00;;;14.11;100.00
3206;BME280;1615;53.602;11.418;2022-10-03T21:05:54;101856.47;;;14.09;100.00
3206;BME280;1615;53.602;11.418;2022-10-03T21:08:24;101857.81;;;14.11;100.00
3206;BME280;1615;53.602;11.418;2022-10-03T21:10:54;101766.84;;;13.49;100.00
3206;BME280;1615;53.602;11.418;2022-10-03T21:13:32;101860.97;;;14.00;100.00
3206;BME280;1615;53.602;11.418;2022-10-03T21:16:01;101764.16;;;13.44;100.00
3206;BME280;1615;53.602;11.418;2022-10-03T21:18:36;101865.31;;;14.06;100.00
3206;BME280;1615;53.602;11.418;2022-10-03T21:21:07;101840.31;;;13.97;100.00
3206;BME280;1615;53.602;11.418;2022-10-03T21:23:42;101840.06;;;13.94;100.00
3206;BME280;1615;53.602;11.418;2022-10-03T21:26:09;101860.91;;;14.05;100.00
3206;BME280;1615;53.602;11.418;2022-10-03T21:28:36;101864.50;;;14.05;100.00
3206;BME280;1615;53.602;11.418;2022-10-03T21:31:18;101855.91;;;14.07;100.00
3206;BME280;1615;53.602;11.418;2022-10-03T21:34:05;101857.31;;;14.04;100.00
3206;BME280;1615;53.602;11.418;2022-10-03T21:36:48;101859.28;;;14.04;100.00
3206;BME280;1615;53.602;11.418;2022-10-03T21:39:26;101847.44;;;13.98;100.00
3206;BME280;1615;53.602;11.418;2022-10-03T21:42:11;101846.00;;;14.06;100.00
3206;BME280;1615;53.602;11.418;2022-10-03T21:44:53;101857.00;;;14.11;100.00
3206;BME280;1615;53.602;11.418;2022-10-03T21:47:49;101719.75;;;13.17;100.00
3206;BME280;1615;53.602;11.418;2022-10-03T21:50:25;101670.91;;;12.94;100.00
3206;BME280;1615;53.602;11.418;2022-10-03T21:53:15;101841.38;;;14.01;100.00
3206;BME280;1615;53.602;11.418;2022-10-03T22:04:10;101843.34;;;13.96;100.00